Latest Coastal Weather Observations for Port Fairy

IDV60701

Issued at 2:21 pm EST Monday 25 July 2016 (issued every 10 minutes, with the page automatically refreshed every 10 minutes)

About coastal observations | Map of coastal stations | Coastal observations for VIC | Marine services | Other Formats
Station Details ID: 090175 Name: PORT FAIRY AWS Lat: -38.39 Lon: 142.23 Height: 10.0 m
Data from the previous 72 hours. | See also: Recent months at Port Fairy
Date/Time
EST
Temp
°C
Wind Pressure Rain since
9am
mm
Weather Cloud Vis
km
Sea
Height
m
Swell
Dir  Spd
kts
Gust
kts
hPa Trend Height
m
Period
s
Dir
25/02:00pm 10.9 NNW 16 28 1000.2 - 0.2 - - - - - - -
25/01:30pm 12.4 NNW 18 31 1000.7 - 0.2 - - - - - - -
25/01:08pm 13.4 NNW 15 25 1001.4 - 0.2 - - - - - - -
25/01:00pm 12.9 NNW 17 26 1001.7 - 0.2 - - - - - - -
25/12:41pm 13.1 NNW 16 27 1002.6 - 0.2 - - - - - - -
25/12:30pm 12.8 NNW 18 27 1002.9 - 0.2 - - - - - - -
25/12:00pm 13.0 NNW 15 27 1004.0 - 0.2 Rain - - - - - -
25/11:53am 12.7 NNW 15 27 1004.3 - 0.0 - - - - - - -
25/11:30am 12.4 NNW 13 19 1005.1 - 0.0 - - - - - - -
25/11:00am 11.8 NNW 13 19 1005.5 - 0.0 - - - - - - -
25/10:30am 10.0 NNW 13 19 1006.3 - 0.0 - - - - - - -
25/10:00am 9.6 NNW 9 15 1006.4 - 0.0 - - - - - - -
25/09:30am 9.0 NNW 7 11 1006.9 - 0.0 - - - - - - -
25/09:00am 8.6 NNW 8 13 1007.2 - 4.0 - - - - - - -
25/08:30am 8.2 NW 9 12 1007.4 - 4.0 - - - - - - -
25/08:00am 8.6 NW 8 13 1007.4 - 4.0 - - - - - - -
25/07:30am 8.6 WNW 8 19 1007.2 - 4.0 - - - - - - -
25/07:00am 10.0 W 15 27 1006.9 - 4.0 - - - - - - -
25/06:50am 9.9 W 16 26 1006.7 - 4.0 - - - - - - -
25/06:30am 10.0 W 15 24 1006.5 - 4.0 - - - - - - -
25/06:00am 9.8 WSW 20 30 1006.3 - 4.0 Rain - - - - - -
25/05:30am 10.7 WSW 21 31 1005.9 - 3.4 - - - - - - -
25/05:28am 10.9 WSW 21 31 1005.8 - 3.4 - - - - - - -
25/05:00am 10.8 W 22 29 1005.3 - 3.4 - - - - - - -
25/04:30am 10.6 WSW 21 30 1004.9 - 3.4 - - - - - - -
25/04:19am 10.5 WSW 22 32 1004.8 - 3.4 - - - - - - -
25/04:04am 9.7 W 12 26 1004.6 - 3.4 - - - - - - -
25/04:00am 8.0 WNW 8 14 1004.5 - 3.2 - - - - - - -
25/03:30am 7.3 NW 10 16 1004.3 - 3.0 - - - - - - -
25/03:00am 7.4 NW 10 15 1004.3 - 2.4 Recent precip. - - - - - -
25/02:30am 7.3 NW 10 14 1004.1 - 2.2 - - - - - - -
25/02:00am 7.2 NW 9 14 1003.8 - 2.0 - - - - - - -
25/01:30am 7.1 NW 9 14 1003.4 - 1.4 - - - - - - -
25/01:00am 7.5 NW 11 17 1003.3 - 1.2 - - - - - - -
25/12:30am 7.4 NW 9 14 1003.2 - 1.0 - - - - - - -
25/12:00am 7.3 NW 10 17 1003.1 - 0.8 Rain - - - - - -
 
Date/Time
EST
Temp
°C
Wind Pressure Rain since
9am
mm
Weather Cloud Vis
km
Sea
Height
m
Swell
Dir  Spd
kts
Gust
kts
hPa Trend Height
m
Period
s
Dir
24/11:30pm 7.3 NNW 12 20 1002.9 - 0.0 - - - - - - -
24/11:00pm 7.3 NNW 12 23 1002.6 - 0.0 - - - - - - -
24/10:30pm 7.6 NNW 12 21 1002.4 - 0.0 - - - - - - -
24/10:00pm 7.4 NNW 11 20 1002.2 - 0.0 - - - - - - -
24/09:30pm 7.5 NNW 12 20 1002.0 - 0.0 - - - - - - -
24/09:00pm 7.3 NNW 12 19 1001.7 - 0.0 - - - - - - -
24/08:30pm 7.6 NNW 12 18 1001.7 - 0.0 - - - - - - -
24/08:00pm 7.9 NNW 13 23 1001.5 - 0.0 - - - - - - -
24/07:30pm 8.2 NNW 12 20 1001.4 - 0.0 - - - - - - -
24/07:00pm 8.2 NNW 11 19 1001.0 - 0.0 - - - - - - -
24/06:30pm 8.4 NNW 12 19 1000.6 - 0.0 - - - - - - -
24/06:00pm 8.5 NNW 11 17 1000.4 - 0.0 - - - - - - -
24/05:30pm 9.1 NNW 13 21 1000.5 - 0.0 - - - - - - -
24/05:00pm 9.7 NNW 14 25 1000.4 - 0.0 - - - - - - -
24/04:30pm 9.9 NNW 13 24 1000.5 - 0.0 - - - - - - -
24/04:00pm 10.4 N 14 24 1000.4 - 0.0 - - - - - - -
24/03:51pm 10.5 N 15 25 1000.4 - 0.0 - - - - - - -
24/03:30pm 10.4 N 14 21 1000.6 - 0.0 - - - - - - -
24/03:00pm 10.5 N 13 22 1001.1 - 0.0 - - - - - - -
24/02:30pm 9.3 N 14 20 1001.7 - 0.0 - - - - - - -
24/02:00pm 8.8 N 14 21 1002.1 - 0.0 - - - - - - -
24/01:30pm 9.5 N 19 32 1003.2 - 0.0 - - - - - - -
24/01:23pm 9.6 N 18 32 1003.2 - 0.0 - - - - - - -
24/01:00pm 9.6 N 11 18 1003.7 - 0.0 - - - - - - -
24/12:30pm 9.8 N 12 18 1004.4 - 0.0 - - - - - - -
24/12:00pm 9.3 N 11 19 1005.0 - 0.0 - - - - - - -
24/11:30am 9.4 N 14 21 1005.7 - 0.0 - - - - - - -
24/11:00am 9.0 N 13 21 1006.3 - 0.0 - - - - - - -
24/10:30am 8.4 N 11 17 1006.5 - 0.0 - - - - - - -
24/10:00am 7.7 N 10 18 1006.7 - 0.0 - - - - - - -
24/09:30am 7.5 N 11 15 1006.9 - 0.0 - - - - - - -
24/09:00am 6.0 NNE 7 11 1007.3 - 3.6 - - - - - - -
24/08:30am 5.1 N 7 10 1007.7 - 3.6 - - - - - - -
24/08:00am 4.1 N 7 11 1007.9 - 3.6 - - - - - - -
24/07:30am 3.5 N 6 9 1007.9 - 3.6 - - - - - - -
24/07:00am 3.4 N 5 8 1008.1 - 3.6 - - - - - - -
24/06:30am 4.0 N 7 11 1008.1 - 3.6 - - - - - - -
24/06:00am 4.1 N 7 10 1008.2 - 3.6 - - - - - - -
24/05:30am 3.5 N 6 7 1008.5 - 3.6 - - - - - - -
24/05:00am 3.7 N 6 7 1008.7 - 3.6 - - - - - - -
24/04:30am 4.0 N 5 7 1009.2 - 3.4 - - - - - - -
24/04:00am 4.3 N 6 9 1009.5 - 3.4 - - - - - - -
24/03:30am 4.7 N 8 11 1010.1 - 3.4 - - - - - - -
24/03:00am 4.8 NNW 8 11 1010.4 - 3.4 - - - - - - -
24/02:30am 4.7 NNW 7 11 1010.9 - 3.4 - - - - - - -
24/02:00am 4.6 NNW 7 11 1010.8 - 3.4 - - - - - - -
24/01:30am 4.7 NNW 7 10 1010.8 - 3.4 - - - - - - -
24/01:00am 4.8 NNW 8 12 1011.0 - 3.4 - - - - - - -
24/12:30am 4.6 NNW 6 8 1011.2 - 3.4 - - - - - - -
24/12:00am 4.8 NNW 6 9 1011.4 - 3.4 - - - - - - -
 
Date/Time
EST
Temp
°C
Wind Pressure Rain since
9am
mm
Weather Cloud Vis
km
Sea
Height
m
Swell
Dir  Spd
kts
Gust
kts
hPa Trend Height
m
Period
s
Dir
23/11:30pm 4.8 NNW 7 11 1011.5 - 3.4 - - - - - - -
23/11:00pm 4.8 NNW 6 8 1011.9 - 3.4 - - - - - - -
23/10:30pm 5.0 NNW 5 8 1012.0 - 3.4 - - - - - - -
23/10:00pm 5.7 NW 5 9 1012.2 - 3.4 - - - - - - -
23/09:30pm 5.4 NNW 6 9 1012.2 - 3.4 - - - - - - -
23/09:00pm 6.2 NNW 8 13 1012.1 - 3.4 Recent precip. - - - - - -
23/08:30pm 6.5 NW 5 9 1012.0 - 2.4 - - - - - - -
23/08:00pm 6.7 NNW 6 11 1011.9 - 2.4 - - - - - - -
23/07:30pm 7.3 NNW 8 12 1011.8 - 2.4 - - - - - - -
23/07:00pm 8.9 WSW 12 16 1011.2 - 2.4 - - - - - - -
23/06:30pm 8.5 SW 15 21 1011.0 - 2.4 - - - - - - -
23/06:08pm 8.5 W 9 25 1010.8 - 2.4 - - - - - - -
23/06:00pm 6.6 WNW 5 9 1010.6 - 2.2 Recent precip. - - - - - -
23/05:39pm 6.9 W 15 25 1010.7 - 2.2 - - - - - - -
23/05:30pm 8.0 WSW 17 25 1010.7 - 2.0 - - - - - - -
23/05:00pm 8.9 W 13 19 1010.1 - 2.0 - - - - - - -
23/04:32pm 8.4 WSW 16 27 1009.9 - 2.0 - - - - - - -
23/04:30pm 8.2 WSW 17 27 1009.9 - 2.0 - - - - - - -
23/04:00pm 9.8 W 18 27 1009.6 - 1.6 - - - - - - -
23/03:53pm 9.9 W 19 29 1009.5 - 1.6 - - - - - - -
23/03:30pm 9.7 WSW 19 26 1009.2 - 1.6 - - - - - - -
23/03:00pm 10.6 WSW 23 30 1009.0 - 1.6 - - - - - - -
23/02:30pm 9.4 W 20 31 1008.6 - 1.6 - - - - - - -
23/02:07pm 10.6 WSW 25 38 1008.2 - 1.6 - - - - - - -
23/02:00pm 10.8 WSW 25 34 1008.1 - 1.6 - - - - - - -
23/01:30pm 10.2 WSW 24 33 1008.0 - 1.6 - - - - - - -
23/01:10pm 8.6 WSW 25 35 1008.1 - 1.4 - - - - - - -
23/01:03pm 10.0 WSW 19 29 1007.9 - 1.4 - - - - - - -
23/01:00pm 10.5 W 18 25 1007.8 - 1.4 - - - - - - -
23/12:31pm 9.1 WSW 26 39 1007.8 - 1.4 - - - - - - -
23/12:30pm 9.1 WSW 25 35 1007.8 - 1.4 - - - - - - -
23/12:01pm 8.8 WSW 25 35 1008.1 - 1.2 - - - - - - -
23/12:00pm 8.7 WSW 26 35 1008.1 - 1.2 Recent precip. - - - - - -
23/11:43am 9.3 SW 19 30 1007.9 - 1.2 - - - - - - -
23/11:30am 8.8 WSW 20 28 1007.9 - 1.2 - - - - - - -
23/11:00am 9.7 WSW 24 35 1007.7 - 0.4 - - - - - - -
23/10:30am 8.9 WSW 22 31 1007.2 - 0.4 - - - - - - -
23/10:00am 9.1 WSW 24 31 1006.8 - 0.2 - - - - - - -
23/09:31am 8.2 WSW 23 34 1006.6 - 0.0 - - - - - - -
23/09:30am 8.6 WSW 22 31 1006.4 - 0.0 - - - - - - -
23/09:08am 7.4 SW 29 42 1006.4 - 0.0 - - - - - - -
23/09:00am 8.0 SW 32 46 1006.3 - 12.6 - - - - - - -
23/08:56am 8.2 SW 28 46 1006.1 - 12.6 - - - - - - -
23/08:49am 8.7 SW 23 35 1005.7 - 12.6 - - - - - - -
23/08:46am 8.4 SW 23 33 1005.7 - 12.6 - - - - - - -
23/08:30am 7.9 SW 30 43 1005.6 - 12.6 - - - - - - -
23/08:26am 8.8 WSW 26 41 1005.3 - 12.6 - - - - - - -
23/08:24am 8.6 WSW 26 41 1005.3 - 12.6 - - - - - - -
23/08:00am 8.7 WSW 19 30 1004.7 - 12.6 - - - - - - -
23/07:43am 7.7 WSW 23 33 1004.8 - 12.6 - - - - - - -
23/07:37am 8.2 WSW 26 33 1004.8 - 12.6 - - - - - - -
23/07:30am 8.6 SW 27 38 1004.6 - 12.6 - - - - - - -
23/07:14am 9.5 WSW 26 39 1003.9 - 12.6 - - - - - - -
23/07:00am 9.4 SW 25 34 1003.6 - 12.6 - - - - - - -
23/06:37am 9.2 WSW 24 35 1003.2 - 12.6 - - - - - - -
23/06:30am 8.6 WSW 24 36 1003.1 - 12.6 - - - - - - -
23/06:23am 7.3 WSW 29 41 1002.9 - 12.6 - - - - - - -
23/06:07am 9.3 WSW 30 42 1002.7 - 12.2 - - - - - - -
23/06:00am 9.8 WSW 30 38 1002.4 - 12.2 - - - - - - -
23/05:30am 9.4 SW 29 43 1001.7 - 12.2 - - - - - - -
23/05:00am 9.8 WSW 31 42 1000.8 - 12.2 - - - - - - -
23/04:30am 9.7 WSW 28 39 999.9 - 12.2 - - - - - - -
23/04:05am 9.5 SW 27 39 999.4 - 12.2 - - - - - - -
23/04:00am 9.2 SW 27 34 999.4 - 12.2 - - - - - - -
23/03:30am 9.3 SW 28 39 998.6 - 12.0 - - - - - - -
23/03:00am 7.5 SW 25 43 998.0 - 12.0 Rain - - - - - -
23/02:31am 10.1 WSW 28 38 997.3 - 11.2 - - - - - - -
23/02:30am 10.2 WSW 29 38 997.3 - 11.2 - - - - - - -
23/02:00am 10.1 WSW 23 38 996.6 - 11.0 - - - - - - -
23/01:33am 9.7 SW 18 29 995.8 - 11.0 - - - - - - -
23/01:30am 9.4 SW 18 25 995.7 - 11.0 - - - - - - -
23/01:21am 9.5 WSW 23 34 995.7 - 11.0 - - - - - - -
23/01:11am 9.5 W 16 26 995.3 - 11.0 - - - - - - -
23/01:00am 9.8 WSW 15 20 995.0 - 11.0 - - - - - - -
23/12:30am 9.3 WSW 19 25 994.9 - 11.0 - - - - - - -
23/12:00am 8.3 SW 22 28 994.0 - 11.0 Recent precip. - - - - - -
 
Date/Time
EST
Temp
°C
Wind Pressure Rain since
9am
mm
Weather Cloud Vis
km
Sea
Height
m
Swell
Dir  Spd
kts
Gust
kts
hPa Trend Height
m
Period
s
Dir
22/11:30pm 8.1 SW 23 30 993.4 - 10.6 - - - - - - -
22/11:05pm 9.1 WSW 26 45 991.5 - 10.2 - - - - - - -
22/11:00pm 8.7 WNW 19 37 990.8 - 10.2 - - - - - - -
22/10:58pm 8.5 NW 16 37 990.5 - 10.2 - - - - - - -
22/10:32pm 8.7 NNW 15 25 990.6 - 10.0 - - - - - - -
22/10:30pm 8.7 NNW 14 25 990.7 - 10.0 - - - - - - -
22/10:00pm 8.7 NNW 10 17 991.3 - 10.0 - - - - - - -
22/09:30pm 8.8 NNW 6 13 991.9 - 10.0 - - - - - - -
22/09:00pm 8.8 NNW 3 5 992.4 - 10.0 Recent precip. - - - - - -
22/08:30pm 8.9 W 7 11 993.1 - 10.0 - - - - - - -
22/08:00pm 8.3 W 4 5 993.2 - 9.6 - - - - - - -
22/07:30pm 10.0 NNW 4 7 993.6 - 5.6 - - - - - - -
22/07:00pm 10.1 NNW 5 7 993.5 - 5.4 - - - - - - -
22/06:30pm 10.3 NW 4 5 993.8 - 5.2 - - - - - - -
22/06:00pm 10.4 WSW 6 11 994.0 - 4.2 Rain - - - - - -
22/05:30pm 11.2 NNW 4 7 993.9 - 3.0 - - - - - - -
22/05:00pm 12.2 W 11 17 994.0 - 2.8 - - - - - - -
22/04:30pm 12.6 W 13 18 994.2 - 2.8 - - - - - - -
22/04:00pm 12.6 W 14 19 994.3 - 2.8 - - - - - - -
22/03:30pm 12.2 W 14 21 994.4 - 2.8 - - - - - - -
22/03:00pm 13.0 W 17 24 994.1 - 2.8 - - - - - - -
22/02:30pm 13.4 W 16 24 994.3 - 2.8 - - - - - - -

Other Formats:

Comma delimited format used in spreadsheet applications
http://www.bom.gov.au/fwo/IDV60701/IDV60701.94830.axf

JavaScript Object Notation format (JSON) in row-major order
http://www.bom.gov.au/fwo/IDV60701/IDV60701.94830.json